Time;durP1;ratioP1;P1;durP2;ratioP2;P2;SDS_P1;SDS_P2;PMS_P1;PMS_P2;Temp;Humidity;BMP_temperature;BMP_pressure;BME280_temperature;BME280_humidity;BME280_pressure;Samples;Min_cycle;Max_cycle;Signal;HPM_P1;HPM_P2
2021/03/22 00:01:04;;;;;;;0.20;0.10;;;;;;;5.17;86.03;100803.84;4976074;28;20482;-57
2021/03/22 00:03:31;;;;;;;0.30;0.20;;;;;;;5.17;85.52;100804.72;4970180;28;20951;-57
2021/03/22 00:05:57;;;;;;;0.30;0.20;;;;;;;4.89;87.20;100811.69;4968255;28;20454;-57
2021/03/22 00:08:24;;;;;;;0.20;0.10;;;;;;;5.17;86.44;100814.41;4975425;28;20513;-57
2021/03/22 00:10:51;;;;;;;0.20;0.10;;;;;;;5.00;87.51;100806.47;4963247;28;20558;-57
2021/03/22 00:13:20;;;;;;;0.20;0.10;;;;;;;5.13;86.84;100797.72;4974549;28;20490;-57
2021/03/22 00:15:47;;;;;;;0.20;0.10;;;;;;;5.27;87.00;100801.25;4975150;28;20450;-57
2021/03/22 00:18:18;;;;;;;0.20;0.10;;;;;;;5.23;86.87;100802.13;4962350;28;20462;-57
2021/03/22 00:20:45;;;;;;;0.20;0.10;;;;;;;5.25;87.41;100792.47;4975048;28;20469;-57
2021/03/22 00:23:11;;;;;;;0.20;0.20;;;;;;;5.30;88.17;100795.97;4967912;28;20879;-57
2021/03/22 00:25:38;;;;;;;0.20;0.10;;;;;;;5.39;87.23;100786.31;4969522;28;20467;-57
2021/03/22 00:28:08;;;;;;;0.20;0.10;;;;;;;5.13;88.53;100791.56;4967203;28;20941;-57
2021/03/22 00:30:38;;;;;;;0.20;0.10;;;;;;;4.96;89.29;100788.91;4970057;28;20848;-57
2021/03/22 00:33:06;;;;;;;0.20;0.10;;;;;;;4.91;90.38;100788.00;4975042;28;20556;-57
2021/03/22 00:35:33;;;;;;;0.20;0.10;;;;;;;4.88;89.77;100780.97;4961919;28;20451;-57
2021/03/22 00:37:59;;;;;;;0.20;0.10;;;;;;;4.77;90.65;100782.69;4974883;28;20867;-57
2021/03/22 00:40:29;;;;;;;0.30;0.10;;;;;;;4.83;91.08;100780.09;4972654;28;20576;-57
2021/03/22 00:42:56;;;;;;;0.20;0.10;;;;;;;4.84;90.67;100780.97;4964670;28;20451;-57
2021/03/22 00:45:23;;;;;;;0.20;0.10;;;;;;;4.51;91.98;100785.22;4974808;28;20478;-57
2021/03/22 00:47:50;;;;;;;0.20;0.10;;;;;;;4.60;91.74;100787.91;4974613;28;20458;-57
2021/03/22 00:50:28;;;;;;;0.20;0.20;;;;;;;4.45;92.49;100787.84;4960821;28;20478;-57
2021/03/22 00:52:54;;;;;;;0.20;0.10;;;;;;;4.42;92.17;100783.47;4974474;28;20910;-57
2021/03/22 00:55:20;;;;;;;0.20;0.10;;;;;;;4.42;92.42;100779.94;4974554;28;20861;-57
2021/03/22 00:57:47;;;;;;;0.20;0.10;;;;;;;4.56;91.87;100783.50;4963454;28;20466;-57
2021/03/22 01:00:27;;;;;;;0.20;0.13;;;;;;;4.91;90.14;100778.34;4973046;28;20474;-57
2021/03/22 01:02:54;;;;;;;0.20;0.10;;;;;;;4.69;90.39;100774.78;4974170;28;20451;-57
2021/03/22 01:05:23;;;;;;;0.20;0.10;;;;;;;4.30;91.57;100778.13;4962092;28;20509;-57
2021/03/22 01:07:50;;;;;;;0.20;0.10;;;;;;;4.46;91.71;100782.59;4974000;28;20465;-57
2021/03/22 01:10:37;;;;;;;0.20;0.20;;;;;;;4.73;90.77;100776.53;4967582;28;20475;-57
2021/03/22 01:13:06;;;;;;;0.30;0.20;;;;;;;4.57;90.91;100776.50;4971096;28;20557;-57
2021/03/22 01:15:33;;;;;;;0.20;0.10;;;;;;;4.83;89.94;100776.56;4974146;28;20505;-57
2021/03/22 01:17:59;;;;;;;0.20;0.17;;;;;;;4.52;91.94;100776.44;4970309;28;20477;-57
2021/03/22 01:20:47;;;;;;;0.20;0.10;;;;;;;4.38;93.02;100779.03;4965751;28;20472;-57
2021/03/22 01:23:14;;;;;;;0.20;0.20;;;;;;;4.45;92.99;100779.94;4962480;28;20454;-57
2021/03/22 01:25:41;;;;;;;0.20;0.20;;;;;;;4.80;91.90;100777.47;4964782;28;20462;-57
2021/03/22 01:28:10;;;;;;;0.30;0.20;;;;;;;4.81;90.33;100775.69;4966032;28;20506;-57
2021/03/22 01:30:40;;;;;;;0.20;0.20;;;;;;;4.69;90.58;100771.28;4969159;28;20478;-57
2021/03/22 01:33:09;;;;;;;0.20;0.10;;;;;;;4.68;91.13;100772.16;4974147;28;20585;-57
2021/03/22 01:35:36;;;;;;;0.20;0.10;;;;;;;4.63;92.41;100774.75;4961186;28;20512;-57
2021/03/22 01:38:03;;;;;;;0.30;0.30;;;;;;;4.61;92.60;100773.88;4973799;28;20446;-57
2021/03/22 01:40:46;;;;;;;0.20;0.10;;;;;;;4.56;93.38;100766.84;4970784;28;20475;-57
2021/03/22 01:43:36;;;;;;;0.20;0.10;;;;;;;4.61;92.88;100771.22;4966311;28;20451;-57
2021/03/22 01:46:03;;;;;;;0.20;0.10;;;;;;;4.85;92.54;100754.63;4962801;28;20458;-57
2021/03/22 01:48:30;;;;;;;0.20;0.20;;;;;;;4.60;92.59;100755.44;4971794;28;20864;-57
2021/03/22 01:50:58;;;;;;;0.20;0.10;;;;;;;4.58;92.60;100765.97;4963548;28;20485;-57
2021/03/22 01:53:26;;;;;;;0.20;0.10;;;;;;;4.64;92.47;100757.19;4973556;28;20461;-57
2021/03/22 01:56:09;;;;;;;0.20;0.10;;;;;;;4.76;92.81;100759.88;4964609;28;20882;-57
2021/03/22 01:58:35;;;;;;;0.20;0.10;;;;;;;4.70;92.30;100759.88;4972091;28;20458;-57
2021/03/22 02:01:02;;;;;;;0.20;0.10;;;;;;;4.73;91.92;100759.88;4973375;28;20883;-57
2021/03/22 02:03:29;;;;;;;0.20;0.10;;;;;;;4.73;90.59;100742.31;4960616;28;20470;-57
2021/03/22 02:05:55;;;;;;;0.20;0.20;;;;;;;4.85;88.64;100757.28;4973614;28;20466;-57
2021/03/22 02:08:34;;;;;;;0.20;0.13;;;;;;;4.95;88.17;100760.81;4968645;28;20494;-57
2021/03/22 02:11:00;;;;;;;0.20;0.20;;;;;;;4.96;88.06;100754.66;4967166;28;20466;-57
2021/03/22 02:13:33;;;;;;;0.20;0.20;;;;;;;4.88;88.04;100751.13;4973573;28;20874;-57
2021/03/22 02:16:17;;;;;;;0.20;0.10;;;;;;;4.80;90.07;100750.22;4964233;28;20457;-57
2021/03/22 02:18:58;;;;;;;0.20;0.10;;;;;;;4.76;91.04;100762.50;4963780;28;20546;-57
2021/03/22 02:21:55;;;;;;;0.20;0.10;;;;;;;4.90;89.34;100759.91;4973172;28;20521;-57
2021/03/22 02:24:45;;;;;;;0.20;0.10;;;;;;;4.86;89.87;100760.78;4963564;28;20827;-57
2021/03/22 02:27:20;;;;;;;0.20;0.20;;;;;;;4.84;90.10;100763.41;4985134;28;20453;-57
2021/03/22 02:30:08;;;;;;;0.20;0.10;;;;;;;4.93;90.35;100755.50;4965361;28;20494;-57
2021/03/22 02:33:22;;;;;;;0.20;0.10;;;;;;;4.80;89.91;100756.38;4957083;28;20494;-57
2021/03/22 02:35:48;;;;;;;0.20;0.10;;;;;;;4.90;90.67;100752.88;4970145;28;20463;-57
2021/03/22 02:38:24;;;;;;;0.20;0.10;;;;;;;5.05;88.64;100750.25;4962514;28;20459;-57
2021/03/22 02:41:00;;;;;;;0.30;0.27;;;;;;;4.95;88.20;100747.63;4971787;28;21018;-57
2021/03/22 02:43:32;;;;;;;0.20;0.10;;;;;;;5.21;87.15;100750.31;4973218;28;20501;-57
2021/03/22 02:45:58;;;;;;;0.20;0.10;;;;;;;5.12;86.92;100758.19;4961281;28;20458;-57
2021/03/22 02:48:26;;;;;;;0.20;0.13;;;;;;;5.14;87.58;100756.44;4972476;28;20477;-57
2021/03/22 02:51:07;;;;;;;0.20;0.10;;;;;;;5.30;86.85;100748.53;4961540;28;20570;-57
2021/03/22 02:53:45;;;;;;;0.20;0.13;;;;;;;5.47;85.20;100756.44;4972779;28;20871;-57
2021/03/22 02:56:17;;;;;;;0.20;0.10;;;;;;;5.14;87.30;100757.31;4961674;28;20468;-57
2021/03/22 02:59:08;;;;;;;0.20;0.10;;;;;;;5.20;86.62;100761.69;4972429;28;20520;-57
2021/03/22 03:01:46;;;;;;;0.20;0.10;;;;;;;5.18;87.40;100758.19;4969492;28;20508;-57
2021/03/22 03:04:15;;;;;;;0.20;0.10;;;;;;;5.45;87.54;100755.56;4963804;28;20446;-57
2021/03/22 03:06:58;;;;;;;0.20;0.20;;;;;;;5.37;85.44;100756.44;4972690;28;20458;-57
2021/03/22 03:09:27;;;;;;;0.20;0.10;;;;;;;5.14;87.49;100759.06;4959674;28;20466;-57
2021/03/22 03:11:55;;;;;;;0.20;0.10;;;;;;;5.30;86.60;100758.19;4972974;28;20490;-57
2021/03/22 03:14:23;;;;;;;0.20;0.20;;;;;;;5.22;86.77;100775.78;4974972;28;20505;-57
2021/03/22 03:16:49;;;;;;;0.67;0.67;;;;;;;5.27;86.41;100766.09;4968011;28;20450;-57
2021/03/22 03:19:16;;;;;;;0.20;0.10;;;;;;;5.24;87.27;100776.66;4964179;28;20459;-57
2021/03/22 03:21:42;;;;;;;0.20;0.20;;;;;;;5.45;86.26;100768.72;4976092;28;20466;-57
2021/03/22 03:24:10;;;;;;;0.20;0.10;;;;;;;5.48;85.53;100773.13;4963281;28;20462;-57
2021/03/22 03:26:37;;;;;;;0.20;0.10;;;;;;;5.30;86.33;100776.66;4976344;28;20469;-57
2021/03/22 03:29:06;;;;;;;0.20;0.10;;;;;;;5.45;86.10;100768.72;4962776;28;20463;-57
2021/03/22 03:31:36;;;;;;;0.20;0.10;;;;;;;5.25;86.81;100776.66;4975634;28;20576;-57
2021/03/22 03:34:05;;;;;;;0.20;0.10;;;;;;;5.17;87.88;100774.88;4973065;28;20546;-57
2021/03/22 03:36:32;;;;;;;0.20;0.10;;;;;;;5.59;86.56;100774.00;4966322;28;20575;-57
2021/03/22 03:38:59;;;;;;;0.20;0.10;;;;;;;5.59;85.98;100776.63;4975758;28;20458;-57
2021/03/22 03:41:26;;;;;;;0.20;0.13;;;;;;;5.34;87.39;100778.41;4965863;28;20483;-57
2021/03/22 03:43:52;;;;;;;0.20;0.10;;;;;;;5.40;87.64;100775.78;4972699;28;20525;-57
2021/03/22 03:46:18;;;;;;;0.20;0.10;;;;;;;5.68;87.13;100779.28;4975969;28;20542;-57
2021/03/22 03:48:45;;;;;;;0.20;0.10;;;;;;;5.55;87.37;100781.03;4972424;28;20455;-57
2021/03/22 03:51:11;;;;;;;0.20;0.20;;;;;;;5.63;86.85;100770.50;4966007;28;20983;-57
2021/03/22 03:53:37;;;;;;;0.20;0.20;;;;;;;5.45;88.31;100781.91;4975728;28;20513;-57
2021/03/22 03:56:04;;;;;;;0.20;0.10;;;;;;;5.44;88.39;100777.53;4965670;28;21009;-57
2021/03/22 03:58:30;;;;;;;0.20;0.10;;;;;;;5.65;87.82;100776.66;4972192;28;20816;-57
2021/03/22 04:00:56;;;;;;;0.20;0.10;;;;;;;5.46;87.85;100774.88;4975710;28;20485;-57
2021/03/22 04:03:33;;;;;;;0.20;0.10;;;;;;;5.64;87.65;100773.13;4962542;28;20450;-57
2021/03/22 04:06:12;;;;;;;0.20;0.20;;;;;;;5.63;87.94;100771.38;4975683;28;20880;-57
2021/03/22 04:08:43;;;;;;;0.30;0.20;;;;;;;5.74;88.25;100775.75;4969171;28;20466;-57
2021/03/22 04:11:13;;;;;;;0.20;0.10;;;;;;;5.61;87.78;100778.38;4968608;28;20491;-57
2021/03/22 04:13:40;;;;;;;0.20;0.10;;;;;;;5.59;87.69;100776.63;4975471;28;20470;-57
2021/03/22 04:16:08;;;;;;;0.20;0.10;;;;;;;5.64;87.73;100782.81;4966571;28;20525;-57
2021/03/22 04:18:38;;;;;;;0.20;0.10;;;;;;;5.61;87.89;100780.16;4967605;28;20530;-57
2021/03/22 04:21:09;;;;;;;0.20;0.13;;;;;;;5.69;87.76;100794.22;4971673;28;20466;-57
2021/03/22 04:23:36;;;;;;;0.20;0.10;;;;;;;5.61;88.70;100790.69;4963116;28;20448;-57
2021/03/22 04:26:04;;;;;;;0.30;0.10;;;;;;;5.55;88.37;100790.72;4972741;28;20948;-57
2021/03/22 04:28:31;;;;;;;0.20;0.10;;;;;;;5.57;88.50;100781.91;4963777;28;20466;-57
2021/03/22 04:30:58;;;;;;;0.20;0.10;;;;;;;5.55;88.55;100790.72;4973033;28;20988;-55
2021/03/22 04:33:24;;;;;;;0.20;0.10;;;;;;;5.67;88.06;100795.13;4975089;28;20490;-55
2021/03/22 04:35:51;;;;;;;0.20;0.10;;;;;;;5.60;88.51;100788.94;4961706;28;20458;-55
2021/03/22 04:38:17;;;;;;;0.20;0.10;;;;;;;5.62;87.52;100790.72;4974847;28;20458;-55
2021/03/22 04:40:43;;;;;;;0.20;0.10;;;;;;;5.58;88.25;100790.72;4970065;28;20475;-55
2021/03/22 04:43:10;;;;;;;0.20;0.10;;;;;;;5.65;88.31;100795.13;4966993;28;20465;-55
2021/03/22 04:45:37;;;;;;;0.20;0.10;;;;;;;5.52;89.32;100788.97;4973325;28;20948;-55
2021/03/22 04:48:03;;;;;;;0.60;0.60;;;;;;;5.51;89.10;100805.66;4974294;28;20455;-55
2021/03/22 04:50:30;;;;;;;0.20;0.10;;;;;;;5.59;89.21;100792.47;4961412;28;20481;-55
2021/03/22 04:52:57;;;;;;;0.20;0.10;;;;;;;5.63;88.69;100796.88;4974603;28;20494;-55
2021/03/22 04:55:25;;;;;;;0.20;0.10;;;;;;;5.57;89.82;100805.66;4969292;28;20522;-55
2021/03/22 04:57:52;;;;;;;0.20;0.13;;;;;;;5.48;88.80;100803.03;4967032;28;21006;-55
2021/03/22 05:00:36;;;;;;;0.20;0.10;;;;;;;5.67;89.32;100797.75;4974492;28;20470;-55
2021/03/22 05:03:04;;;;;;;0.20;0.10;;;;;;;5.60;89.38;100792.47;4961348;28;20533;-55
2021/03/22 05:05:30;;;;;;;0.20;0.10;;;;;;;5.62;89.21;100803.03;4972963;28;20486;-55
2021/03/22 05:07:56;;;;;;;0.20;0.10;;;;;;;5.64;89.85;100796.00;4972331;28;20470;-55
2021/03/22 05:10:35;;;;;;;0.20;0.10;;;;;;;5.70;89.50;100808.28;4963080;28;20824;-56
2021/03/22 05:13:02;;;;;;;0.20;0.10;;;;;;;5.76;89.14;100793.34;4973930;28;20489;-55
2021/03/22 05:15:29;;;;;;;0.20;0.20;;;;;;;5.81;88.46;100796.84;4964357;28;20459;-56
2021/03/22 05:17:56;;;;;;;0.20;0.10;;;;;;;5.54;89.56;100803.03;4970624;28;20451;-55
2021/03/22 05:20:41;;;;;;;0.20;0.20;;;;;;;5.62;89.30;100808.31;4964570;28;20504;-56
2021/03/22 05:23:12;;;;;;;0.20;0.13;;;;;;;5.73;88.51;100810.91;4961802;28;20497;-56
2021/03/22 05:25:39;;;;;;;0.20;0.20;;;;;;;5.44;90.56;100814.44;4964321;28;20520;-55
2021/03/22 05:28:06;;;;;;;0.20;0.10;;;;;;;5.64;90.42;100817.97;4966513;28;21012;-55
2021/03/22 05:30:33;;;;;;;0.20;0.10;;;;;;;5.44;91.27;100819.69;4968915;28;20474;-55
2021/03/22 05:33:04;;;;;;;0.20;0.10;;;;;;;5.55;90.58;100820.59;4974055;28;20498;-55
2021/03/22 05:35:32;;;;;;;0.20;0.10;;;;;;;5.51;91.08;100820.59;4960394;28;20792;-56
2021/03/22 05:37:58;;;;;;;0.20;0.10;;;;;;;5.54;91.09;100818.84;4973924;28;20454;-56
2021/03/22 05:40:30;;;;;;;0.20;0.13;;;;;;;5.44;91.32;100819.69;4972329;28;20502;-55
2021/03/22 05:43:20;;;;;;;0.20;0.20;;;;;;;5.50;92.29;100825.00;4963431;28;20505;-56
2021/03/22 05:46:07;;;;;;;0.20;0.10;;;;;;;5.42;92.59;100828.50;4973893;28;20454;-56
2021/03/22 05:48:54;;;;;;;0.20;0.20;;;;;;;5.65;91.97;100818.84;4972043;28;20501;-56
2021/03/22 05:51:57;;;;;;;0.30;0.20;;;;;;;5.53;92.40;100821.47;4965509;28;20474;-55
2021/03/22 05:54:32;;;;;;;0.20;0.10;;;;;;;5.50;93.01;100826.75;4963977;28;20454;-56
2021/03/22 05:57:19;;;;;;;0.20;0.20;;;;;;;5.45;93.07;100833.75;4960777;28;20458;-55
2021/03/22 06:00:06;;;;;;;0.20;0.20;;;;;;;5.38;93.32;100830.25;4973499;28;20454;-55
2021/03/22 06:02:51;;;;;;;0.20;0.20;;;;;;;5.35;93.86;100820.59;4963849;28;20446;-55
2021/03/22 06:05:40;;;;;;;0.20;0.10;;;;;;;5.33;93.60;100824.06;4960001;28;20807;-55
2021/03/22 06:08:20;;;;;;;0.20;0.20;;;;;;;5.50;93.85;100832.91;4973172;28;20521;-55
2021/03/22 06:10:51;;;;;;;0.20;0.10;;;;;;;5.48;93.65;100832.03;4963221;28;20479;-55
2021/03/22 06:13:26;;;;;;;0.20;0.10;;;;;;;5.46;94.27;100833.75;4971164;28;20501;-55
2021/03/22 06:16:02;;;;;;;0.20;0.20;;;;;;;5.60;93.70;100837.28;4973606;28;20445;-55
2021/03/22 06:18:34;;;;;;;0.20;0.10;;;;;;;5.58;92.85;100836.41;4960813;28;20442;-55
2021/03/22 06:21:07;;;;;;;0.20;0.10;;;;;;;5.63;93.42;100836.44;4973234;28;20554;-55
2021/03/22 06:23:42;;;;;;;0.20;0.20;;;;;;;5.53;94.54;100845.22;4963134;28;20439;-55
2021/03/22 06:26:23;;;;;;;0.20;0.10;;;;;;;5.61;93.35;100846.94;4971384;28;21029;-55
2021/03/22 06:28:56;;;;;;;0.30;0.20;;;;;;;5.58;93.67;100846.97;4959910;28;20862;-55
2021/03/22 06:31:24;;;;;;;0.20;0.10;;;;;;;5.54;94.03;100847.84;4973158;28;20521;-55
2021/03/22 06:34:06;;;;;;;0.20;0.10;;;;;;;5.61;93.56;100846.94;4971305;28;20512;-55
2021/03/22 06:36:33;;;;;;;0.20;0.10;;;;;;;5.74;93.24;100844.31;4964339;28;20450;-55
2021/03/22 06:39:04;;;;;;;0.20;0.20;;;;;;;5.79;92.63;100845.22;4972880;28;20442;-55
2021/03/22 06:41:50;;;;;;;0.20;0.10;;;;;;;5.80;92.15;100846.97;4961427;28;20471;-55
2021/03/22 06:44:27;;;;;;;0.20;0.20;;;;;;;5.79;91.65;100855.78;4960609;28;20450;-55
2021/03/22 06:47:00;;;;;;;0.23;0.20;;;;;;;5.78;92.64;100852.25;4973341;28;20446;-56
